Pagrindinis puslapis
METAR-TAF:

METAR-TAF

Oro uostai :

Naftos platforma

Norne Fpso, Norvegija

platuma: 66-01-48N, ilguma: 008-04-48E, Aukštis: 10 m

Dabartinis oras

Ataskaita buvo paskelbta 33 minutes, ne 00:50 UTC
Vėjas 25 kt iš Pietų
Temperatūra 4°C
Drėgmė 75%
Slėgis 1003 hPa
Matomumas 10 km arba daugiau

METAR: ENNE 270050Z AUTO 19025KT 9999 BKN019/// 04/M00 Q1003 W///S5

Laikas: 02:23 (01:23 UTC)

Prognozė

Ataskaita buvo paskelbta 9 valandos ir 28 minutes, ne 15:55 UTC
Prognozė galioja nuo 26 metu 15 UTC su 26 metu 18 UTC
Vėjas 18 kt iš Pietvakarių
Matomumas 10 km arba daugiau
Su prošvaistėmis ne aukštis 3500 ft
lietus
Tikimybė 30% :
Laikinai
nuo 26 metu 15 UTC su 26 metu 18 UTC
Su prošvaistėmis ne aukštis 1200 ft
Išsisklaidę debesys ne aukštis 1500 ft, aukštai iškilę kamuoliniai debesys.

TAF: ENNE 261555Z 2615/2618 23018KT 9999 -SHRA BKN035 PROB30 TEMPO 2615/2618 BKN012 SCT015TCU

Orai ataskaitas ir orų prognozės (METAR, TAF).

turimą stotys yra geltonos ir raudonos taškus žemėlapyje.

Perkelti pele per norėdami pamatyti stoties vardą.

Tada spustelėkite, norėdami matyti oro stebėjimo ir prognozės.

Norėdami pakeisti žemėlapį: spustelėkite ant žalios mygtukų su juodo kryžiaus žemyn,; žalią mygtuką su brūkšneliu, jei norite nutolinti; arba žalių rodyklių gretimoms žemėlapius.


METAR-TAF: